Time,TemperatureF,DewpointF,PressureIn,WindDirection,WindDirectionDegrees,WindSpeedMPH,WindSpeedGustMPH,Humidity,HourlyPrecipIn,Conditions,Clouds,dailyrainin,SoftwareType,DateUTC
2013-03-20 06:30:00,53.3,51.8,29.26,SW,225,6.3,6.3,95,0.01,,,0.00,WUHU216HW,2013-03-20 13:30:00,
2013-03-20 06:35:00,53.3,51.8,29.26,SW,225,6.3,6.3,95,0.01,,,0.00,WUHU216HW,2013-03-20 13:35:00,
2013-03-20 07:00:00,53.3,51.8,29.26,SSW,203,1.8,1.8,95,0.04,,,0.00,WUHU216HW,2013-03-20 14:00:00,
2013-03-20 07:05:00,53.3,51.8,29.26,SSW,203,1.8,1.8,95,0.04,,,0.00,WUHU216HW,2013-03-20 14:05:00,
2013-03-20 07:30:00,53.3,51.8,29.26,WSW,248,3.6,3.6,95,0.08,,,0.05,WUHU216HW,2013-03-20 14:30:00,
2013-03-20 07:35:00,53.3,51.8,29.26,WSW,248,3.6,3.6,95,0.08,,,0.05,WUHU216HW,2013-03-20 14:35:00,
2013-03-20 08:00:00,53.3,51.8,29.29,SW,225,1.8,1.8,95,0.10,,,0.09,WUHU216HW,2013-03-20 15:00:00,
2013-03-20 08:05:00,53.3,51.8,29.29,SW,225,1.8,1.8,95,0.10,,,0.09,WUHU216HW,2013-03-20 15:05:00,
2013-03-20 08:30:00,52.9,51.2,29.32,North,0,4.5,4.5,94,0.11,,,0.14,WUHU216HW,2013-03-20 15:30:00,
2013-03-20 08:35:00,52.9,51.2,29.32,North,0,4.5,4.5,94,0.11,,,0.14,WUHU216HW,2013-03-20 15:35:00,
2013-03-20 09:00:00,51.5,48.6,29.35,SSW,203,1.1,1.1,90,0.06,,,0.20,WUHU216HW,2013-03-20 16:00:00,
2013-03-20 09:05:00,51.5,48.6,29.35,SSW,203,1.1,1.1,90,0.06,,,0.20,WUHU216HW,2013-03-20 16:05:00,
2013-03-20 09:30:00,50.9,47.8,29.38,South,180,2.5,2.5,89,0.01,,,0.21,WUHU216HW,2013-03-20 16:30:00,
2013-03-20 09:35:00,50.9,47.8,29.38,South,180,2.5,2.5,89,0.01,,,0.21,WUHU216HW,2013-03-20 16:35:00,
2013-03-20 10:00:00,51.1,48.0,29.42,West,270,0.2,0.2,89,0.00,,,0.21,WUHU216HW,2013-03-20 17:00:00,
2013-03-20 10:05:00,51.1,48.0,29.42,West,270,0.2,0.2,89,0.00,,,0.21,WUHU216HW,2013-03-20 17:05:00,
2013-03-20 10:30:00,52.6,48.4,29.44,SSE,158,2.7,2.7,86,0.00,,,0.21,WUHU216HW,2013-03-20 17:30:00,
2013-03-20 10:35:00,52.6,48.4,29.44,SSE,158,2.7,2.7,86,0.00,,,0.21,WUHU216HW,2013-03-20 17:35:00,
2013-03-20 11:00:00,52.9,47.6,29.45,West,270,4.5,4.5,82,0.00,,,0.21,WUHU216HW,2013-03-20 18:00:00,
2013-03-20 11:05:00,52.9,47.6,29.45,West,270,4.5,4.5,82,0.00,,,0.21,WUHU216HW,2013-03-20 18:05:00,
2013-03-20 17:00:00,47.5,41.7,29.68,West,270,2.7,2.7,80,0.04,,,0.21,WUHU216HW,2013-03-21 00:00:00,
2013-03-20 17:05:00,47.5,41.7,29.68,West,270,2.7,2.7,80,0.04,,,0.21,WUHU216HW,2013-03-21 00:05:00,
2013-03-20 17:30:00,47.3,41.8,29.69,SW,225,7.8,7.8,81,0.03,,,0.27,WUHU216HW,2013-03-21 00:30:00,
2013-03-20 17:35:00,47.3,41.8,29.69,SW,225,7.8,7.8,81,0.03,,,0.27,WUHU216HW,2013-03-21 00:35:00,
2013-03-20 18:00:00,47.3,41.5,29.70,WSW,248,1.3,1.3,80,0.00,,,0.27,WUHU216HW,2013-03-21 01:00:00,
2013-03-20 18:05:00,47.3,41.5,29.70,WSW,248,1.3,1.3,80,0.00,,,0.27,WUHU216HW,2013-03-21 01:05:00,
2013-03-20 18:30:00,47.0,40.5,29.73,NW,315,1.1,1.1,78,0.00,,,0.27,WUHU216HW,2013-03-21 01:30:00,
2013-03-20 18:35:00,47.0,40.5,29.73,NW,315,1.1,1.1,78,0.00,,,0.27,WUHU216HW,2013-03-21 01:35:00,
2013-03-20 19:00:00,45.5,40.4,29.74,West,270,0.4,0.4,82,0.01,,,0.27,WUHU216HW,2013-03-21 02:00:00,
2013-03-20 19:05:00,45.5,40.4,29.74,West,270,0.4,0.4,82,0.01,,,0.27,WUHU216HW,2013-03-21 02:05:00,
2013-03-20 19:30:00,44.1,39.0,29.76,SSW,203,0.0,0.0,82,0.01,,,0.28,WUHU216HW,2013-03-21 02:30:00,
2013-03-20 19:35:00,44.1,39.0,29.76,SSW,203,0.0,0.0,82,0.01,,,0.28,WUHU216HW,2013-03-21 02:35:00,
2013-03-20 20:00:00,43.6,39.1,29.77,WSW,248,2.5,2.5,84,0.00,,,0.28,WUHU216HW,2013-03-21 03:00:00,
2013-03-20 20:05:00,43.6,39.1,29.77,WSW,248,2.5,2.5,84,0.00,,,0.28,WUHU216HW,2013-03-21 03:05:00,
2013-03-20 20:30:00,43.0,38.8,29.80,West,270,0.2,0.2,85,0.00,,,0.28,WUHU216HW,2013-03-21 03:30:00,
2013-03-20 20:35:00,43.0,38.8,29.80,West,270,0.2,0.2,85,0.00,,,0.28,WUHU216HW,2013-03-21 03:35:00,
2013-03-20 21:00:00,43.4,38.5,29.81,SSW,203,0.0,0.0,83,0.00,,,0.28,WUHU216HW,2013-03-21 04:00:00,
2013-03-20 21:05:00,43.4,38.5,29.81,SSW,203,0.0,0.0,83,0.00,,,0.28,WUHU216HW,2013-03-21 04:05:00,